Thunder radar more information blitzortung!


Radar de pluja more information rain snow radar


Visita la nostra xarxa de llocs de meteo:

Template documentation
and downloads

And another site



No particular awareness of the weather is required.    There are no Weather-warnings

Pagina Historial Weather Underground text

Diari Resum Juny 25, 2017 Unitats:  Mètric    Imperial   Tant
« Previous Dia
SegĂźent Dia »
Diari Setmana Mensual Anual Personalitzada
  Maxima: Minima: Media:
Temperatura: -17.8 °C -6 °C -3.4 °C
Punt de rosada: -17.8 °C -8.3 °C -7.3 °C
Humitat: Humidity % 50 % 66 %
Wind Speed: 0 km/h 0 km/h 8.5 km/h
RĂ fegues de vent: 0 km/h - -
Vent:- - South
Pression baro: 0 hPa 34222.3 hPa -
Precipitacions: 0 mm    
Historical Graphs
 
 
Dades de taula per Juny 25, 2017
Temps Temperatura Punt de rosada Pression baro Vent Wind Speed RĂ fegues de vent Humitat Rainfall Rate (Hourly)
-17.8 °C -17.8 °C 0 hPa Calm     Humidity % 0 mm
00:02 -4.8 °C -7.9 °C 34327.3 hPa SW 6 km/h 6 km/h 71 % 0 mm
00:07 -4.8 °C -7.9 °C 34327.3 hPa WSW 6 km/h 6 km/h 71 % 0 mm
05:20 -4.9 °C -6.8 °C 34395 hPa ESE 7.7 km/h 15.6 km/h 81 % 0 mm
05:30 -4.9 °C -6.8 °C 34395 hPa ESE 7.7 km/h 10.3 km/h 81 % 0 mm
05:40 -4.9 °C -6.8 °C 34395 hPa East 5.1 km/h 12.9 km/h 81 % 0 mm
05:50 -4.9 °C -6.8 °C 34395 hPa East 15.6 km/h 15.6 km/h 81 % 0 mm
06:00 -4.8 °C -6.8 °C 34395 hPa East 12.9 km/h 15.6 km/h 80 % 0 mm
06:10 -4.7 °C -6.8 °C 34395 hPa East 2.6 km/h 10.3 km/h 80 % 0 mm
06:20 -4.7 °C -6.7 °C 34395 hPa ESE 7.7 km/h 12.9 km/h 80 % 0 mm
06:30 -4.4 °C -6.7 °C 34428.8 hPa SE 2.6 km/h 5.1 km/h 78 % 0 mm
06:40 -4.4 °C -6.7 °C 34395 hPa ESE 5.1 km/h 12.9 km/h 78 % 0 mm
11:47 -4.2 °C -6.5 °C 34395 hPa SSW 3.1 km/h   78 % 0 mm
11:52 -4.2 °C -6.6 °C 34428.8 hPa ESE 9 km/h 9 km/h 77 % 0 mm
11:57 -4.2 °C -6.6 °C 34428.8 hPa ESE 7.6 km/h   77 % 0 mm
12:02 -4.2 °C -6.6 °C 34462.7 hPa East 9 km/h 9 km/h 77 % 0 mm
12:07 -4.2 °C -6.6 °C 34462.7 hPa East 12.7 km/h 12.7 km/h 77 % 0 mm
12:12 -4.2 °C -6.7 °C 34462.7 hPa South 11.9 km/h 11.9 km/h 76 % 0 mm
12:17 -4.1 °C -6.6 °C 34462.7 hPa ESE 15.3 km/h 15.3 km/h 76 % 0 mm
12:22 -3.9 °C -6.6 °C 34462.7 hPa SE 9 km/h 9 km/h 75 % 0 mm
12:27 -4 °C -6.6 °C 34462.7 hPa ESE 9 km/h 9 km/h 75 % 0 mm
12:32 -3.9 °C -6.6 °C 34428.8 hPa NE 6 km/h 6 km/h 74 % 0 mm
12:37 -3.8 °C -6.7 °C 34428.8 hPa ESE 15 km/h 15 km/h 73 % 0 mm
12:42 -3.7 °C -6.6 °C 34428.8 hPa ENE 17.9 km/h 17.9 km/h 73 % 0 mm
12:47 -3.5 °C -6.5 °C 34395 hPa South 9 km/h 9 km/h 72 % 0 mm
12:52 -3.6 °C -6.8 °C 34395 hPa NE 11.9 km/h 11.9 km/h 71 % 0 mm
12:57 -3.7 °C -6.8 °C 34395 hPa NW 9 km/h 9 km/h 71 % 0 mm
13:02 -3.7 °C -6.8 °C 34428.8 hPa South 9 km/h 9 km/h 71 % 0 mm
13:07 -3.6 °C -6.7 °C 34428.8 hPa SSE 5.1 km/h   71 % 0 mm
13:12 -3.2 °C -6.4 °C 34428.8 hPa South 6 km/h 6 km/h 71 % 0 mm
13:17 -2.9 °C -6.2 °C 34428.8 hPa SW 6.3 km/h 6.3 km/h 70 % 0 mm
13:22 -2.9 °C -6.3 °C 34428.8 hPa SW 9 km/h 9 km/h 69 % 0 mm
13:27 -2.9 °C -6.5 °C 34428.8 hPa SW 11.9 km/h 11.9 km/h 68 % 0 mm
13:32 -2.8 °C -6.5 °C 34428.8 hPa SW 9.8 km/h 9.8 km/h 67 % 0 mm
13:37 -2.8 °C -6.6 °C 34428.8 hPa West 15 km/h 15 km/h 66 % 0 mm
13:42 -2.9 °C -6.7 °C 34428.8 hPa East 6.8 km/h 6.8 km/h 66 % 0 mm
13:47 -3.1 °C -6.9 °C 34428.8 hPa East 11.9 km/h 11.9 km/h 66 % 0 mm
13:52 -2.8 °C -6.7 °C 34428.8 hPa ESE 9 km/h 9 km/h 66 % 0 mm
13:57 -2.4 °C -6.4 °C 34428.8 hPa South 6 km/h 6 km/h 65 % 0 mm
14:02 -2.4 °C -6.5 °C 34395 hPa WSW 9.8 km/h 9.8 km/h 64 % 0 mm
14:07 -2.3 °C -6.4 °C 34395 hPa WSW 3.1 km/h 3.1 km/h 64 % 0 mm
14:12 -2.3 °C -6.7 °C 34395 hPa South 11.9 km/h 11.9 km/h 62 % 0 mm
14:17 -2 °C -6.3 °C 34395 hPa SW 9 km/h 9 km/h 63 % 0 mm
14:22 -1.9 °C -6.4 °C 34395 hPa SSE 17.9 km/h 17.9 km/h 62 % 0 mm
14:27 -2.1 °C -6.5 °C 34395 hPa SW 6 km/h 6 km/h 62 % 0 mm
14:32 -2.1 °C -6.6 °C 34395 hPa South 11.9 km/h 11.9 km/h 62 % 0 mm
14:37 -2.1 °C -6.5 °C 34395 hPa SSE 9 km/h 9 km/h 62 % 0 mm
14:42 -2.1 °C -6.6 °C 34395 hPa SW 15 km/h 15 km/h 61 % 0 mm
14:47 -1.9 °C -6.5 °C 34395 hPa SW 11.9 km/h 11.9 km/h 61 % 0 mm
14:52 -1.6 °C -6.5 °C 34395 hPa WSW 9 km/h 9 km/h 59 % 0 mm
14:57 -1.4 °C -6.3 °C 34395 hPa SW 7.6 km/h 7.6 km/h 59 % 0 mm
15:02 -1.7 °C -6.7 °C 34361.1 hPa SW 11.9 km/h 11.9 km/h 58 % 0 mm
15:07 -1.4 °C -6.4 °C 34361.1 hPa SSW 11.9 km/h 11.9 km/h 58 % 0 mm
15:12 -1.5 °C -6.9 °C 34361.1 hPa South 6 km/h 6.3 km/h 56 % 0 mm
15:17 -1.5 °C -6.7 °C 34361.1 hPa SSW 6 km/h 6 km/h 57 % 0 mm
15:22 -1.4 °C -6.6 °C 34361.1 hPa South 9 km/h 9 km/h 57 % 0 mm
15:27 -1.4 °C -6.6 °C 34361.1 hPa SW 15 km/h 15 km/h 57 % 0 mm
15:32 -1.7 °C -6.9 °C 34361.1 hPa SSW 6 km/h 6.3 km/h 57 % 0 mm
15:37 -1.5 °C -6.7 °C 34361.1 hPa SW 17.9 km/h 17.9 km/h 57 % 0 mm
15:42 -1.4 °C -6.7 °C 34361.1 hPa WSW 26.9 km/h 26.9 km/h 57 % 0 mm
15:47 -1.4 °C -6.6 °C 34361.1 hPa SW 9 km/h 9 km/h 57 % 0 mm
15:52 -1.3 °C -6.7 °C 34361.1 hPa West 20.9 km/h 20.9 km/h 56 % 0 mm
15:57 -1.1 °C -6.7 °C 34361.1 hPa WSW 20.9 km/h 20.9 km/h 55 % 0 mm
16:02 -1.1 °C -6.6 °C 34361.1 hPa South 11.9 km/h 11.9 km/h 55 % 0 mm
16:07 -1.2 °C -6.7 °C 34361.1 hPa SSW 23.8 km/h 23.8 km/h 55 % 0 mm
16:12 -1.4 °C -6.9 °C 34327.3 hPa SSE 9 km/h 9 km/h 55 % 0 mm
16:17 -1.4 °C -7 °C 34327.3 hPa SW 9 km/h 9 km/h 55 % 0 mm
16:22 -1.7 °C -7.1 °C 34327.3 hPa WSW 11.9 km/h 11.9 km/h 56 % 0 mm
16:27 -1.7 °C -7.2 °C 34327.3 hPa WSW 7.6 km/h 7.6 km/h 55 % 0 mm
16:32 -1.7 °C -7.1 °C 34327.3 hPa SSW 6 km/h 6 km/h 56 % 0 mm
16:37 -1.7 °C -7.2 °C 34327.3 hPa SW 9.3 km/h 9.3 km/h 55 % 0 mm
16:42 -1.5 °C -7.1 °C 34327.3 hPa SSW 9 km/h 9 km/h 55 % 0 mm
16:47 -1.3 °C -6.8 °C 34327.3 hPa SW 9.8 km/h 9.8 km/h 55 % 0 mm
16:52 -1 °C -6.7 °C 34327.3 hPa West 6.3 km/h 6.3 km/h 54 % 0 mm
16:57 -0.8 °C -6.6 °C 34327.3 hPa South 15 km/h 15 km/h 54 % 0 mm
17:02 -0.7 °C -6.7 °C 34327.3 hPa SW 9.3 km/h 9.3 km/h 53 % 0 mm
17:07 -0.6 °C -6.6 °C 34327.3 hPa SW 11.9 km/h 11.9 km/h 53 % 0 mm
17:12 -0.7 °C -6.8 °C 34327.3 hPa SW 15 km/h 15 km/h 52 % 0 mm
17:17 -0.7 °C -7 °C 34327.3 hPa SW 6 km/h 6 km/h 51 % 0 mm
17:22 -0.9 °C -7.2 °C 34327.3 hPa SW 9 km/h 9 km/h 51 % 0 mm
17:27 -1.1 °C -7.3 °C 34293.4 hPa SW 6 km/h 6 km/h 51 % 0 mm
17:32 -1.2 °C -7.4 °C 34293.4 hPa SSW 11.1 km/h 11.1 km/h 51 % 0 mm
17:37 -1.3 °C -7.7 °C 34293.4 hPa West 11.9 km/h 11.9 km/h 50 % 0 mm
17:38 -1.3 °C -7.7 °C 34293.4 hPa SE 11.9 km/h 11.9 km/h 50 % 0 mm
17:43 -1.5 °C -7.7 °C 34293.4 hPa ESE 12.2 km/h 12.2 km/h 51 % 0 mm
17:48 -1.5 °C -7.7 °C 34293.4 hPa SW 5.1 km/h 5.1 km/h 51 % 0 mm
17:53 -1.4 °C -7.7 °C 34293.4 hPa SW 20.9 km/h 20.9 km/h 51 % 0 mm
17:54 -1.5 °C -7.9 °C 34293.4 hPa WSW 20.9 km/h 20.9 km/h 50 % 0 mm
17:59 -1.4 °C -7.7 °C 34256.2 hPa SW 11.9 km/h 11.9 km/h 51 % 0 mm
18:04 -1.3 °C -7.6 °C 34256.2 hPa SSW 20.9 km/h 20.9 km/h 51 % 0 mm
18:09 -1.5 °C -7.7 °C 34256.2 hPa SSW 17.9 km/h 17.9 km/h 51 % 0 mm
18:14 -1.6 °C -8 °C 34293.4 hPa West 15 km/h 15 km/h 50 % 0 mm
18:19 -1.6 °C -7.9 °C 34293.4 hPa WSW 9.8 km/h 9.8 km/h 50 % 0 mm
18:24 -1.5 °C -7.9 °C 34293.4 hPa SW 11.9 km/h 11.9 km/h 50 % 0 mm
18:29 -1.6 °C -7.9 °C 34256.2 hPa WSW 11.9 km/h 11.9 km/h 50 % 0 mm
18:34 -1.6 °C -8 °C 34256.2 hPa West 11.9 km/h 11.9 km/h 50 % 0 mm
18:39 -1.7 °C -7.9 °C 34256.2 hPa West 9.8 km/h 9.8 km/h 51 % 0 mm
18:44 -1.8 °C -8.2 °C 34256.2 hPa WSW 6 km/h   50 % 0 mm
18:49 -1.8 °C -8.2 °C 34256.2 hPa WSW 9 km/h 9 km/h 50 % 0 mm
18:54 -1.9 °C -8.2 °C 34256.2 hPa SW 9 km/h 9 km/h 50 % 0 mm
18:59 -1.9 °C -8.1 °C 34256.2 hPa SW 6.3 km/h 6.3 km/h 51 % 0 mm
19:04 -1.9 °C -8.1 °C 34256.2 hPa WSW 12.7 km/h 12.7 km/h 51 % 0 mm
19:09 -2.1 °C -8.2 °C 34256.2 hPa SW 15 km/h 15 km/h 51 % 0 mm
19:10 -4.9 °C -7.3 °C 34293.4 hPa ENE 5.1 km/h 7.7 km/h 77 % 0 mm
19:14 -2.1 °C -8.1 °C 34222.3 hPa SSW 9 km/h 9 km/h 52 % 0 mm
19:19 -2.3 °C -8.3 °C 34222.3 hPa SW 11.9 km/h 11.9 km/h 52 % 0 mm
19:20 -5 °C -7.4 °C 34293.4 hPa ESE 5.1 km/h 5.1 km/h 76 % 0 mm
19:24 -2.3 °C -8.2 °C 34222.3 hPa SW 10.3 km/h 10.3 km/h 53 % 0 mm
19:29 -2.5 °C -8.3 °C 34256.2 hPa SSW 11.9 km/h 11.9 km/h 53 % 0 mm
19:30 -5.1 °C -7.4 °C 34327.3 hPa SSW 2.6 km/h 5.1 km/h 77 % 0 mm
19:34 -2.6 °C -8.2 °C 34256.2 hPa WSW 6.3 km/h   54 % 0 mm
19:39 -2.6 °C -8.2 °C 34256.2 hPa SSW 15 km/h 15 km/h 54 % 0 mm
19:40 -5.1 °C -7.4 °C 34293.4 hPa SW 5.1 km/h 10.3 km/h 77 % 0 mm
19:44 -2.7 °C -8.3 °C 34256.2 hPa SSW 11.9 km/h 11.9 km/h 54 % 0 mm
19:49 -2.7 °C -8.3 °C 34256.2 hPa SW 11.9 km/h 11.9 km/h 54 % 0 mm
19:50 -5.2 °C -7.4 °C 34293.4 hPa Calm   5.1 km/h 78 % 0 mm
19:54 -2.8 °C -8.3 °C 34256.2 hPa SW 11.9 km/h 11.9 km/h 55 % 0 mm
19:59 -2.9 °C -8.2 °C 34256.2 hPa SW 11.1 km/h 11.1 km/h 56 % 0 mm
20:00 -5.2 °C -7.3 °C 34293.4 hPa SW 5.1 km/h 5.1 km/h 79 % 0 mm
20:04 -2.9 °C -8.2 °C 34256.2 hPa SSW 11.9 km/h 11.9 km/h 56 % 0 mm
20:09 -3.1 °C -8.3 °C 34256.2 hPa SW 15 km/h 15 km/h 56 % 0 mm
20:10 -5.2 °C -7.4 °C 34293.4 hPa SW 2.6 km/h 5.1 km/h 78 % 0 mm
20:14 -3.1 °C -8.2 °C 34256.2 hPa West 11.9 km/h 11.9 km/h 57 % 0 mm
20:19 -3.1 °C -8.2 °C 34256.2 hPa SW 6.3 km/h 6.3 km/h 57 % 0 mm
20:20 -5.2 °C -7.3 °C 34293.4 hPa Calm   5.1 km/h 79 % 0 mm
20:24 -3.1 °C -8.1 °C 34256.2 hPa SW 6 km/h 6 km/h 58 % 0 mm
20:29 -3.2 °C -8.2 °C 34256.2 hPa SSW 6 km/h 6 km/h 58 % 0 mm
20:30 -5.3 °C -7.4 °C 34256.2 hPa WSW 2.6 km/h 5.1 km/h 79 % 0 mm
20:34 -3.2 °C -8.2 °C 34256.2 hPa WSW 3.1 km/h   58 % 0 mm
20:39 -3.3 °C -8.1 °C 34256.2 hPa South 6 km/h   59 % 0 mm
20:40 -5.3 °C -7.4 °C 34293.4 hPa WSW 5.1 km/h 5.1 km/h 79 % 0 mm
20:44 -3.3 °C -8.1 °C 34256.2 hPa Calm     59 % 0 mm
20:49 -3.4 °C -8.2 °C 34256.2 hPa SW 6 km/h 6 km/h 59 % 0 mm
20:50 -5.3 °C -7.3 °C 34293.4 hPa West 2.6 km/h 5.1 km/h 80 % 0 mm
20:54 -3.5 °C -8.2 °C 34256.2 hPa SW 6 km/h 6 km/h 60 % 0 mm
20:59 -3.6 °C -8.2 °C 34256.2 hPa WSW 3.7 km/h   60 % 0 mm
21:00 -5.3 °C -7.3 °C 34293.4 hPa Calm   2.6 km/h 80 % 0 mm
21:04 -3.6 °C -8.2 °C 34256.2 hPa SW 3.1 km/h   60 % 0 mm
21:09 -3.7 °C -8.2 °C 34256.2 hPa Calm     61 % 0 mm
21:10 -5.3 °C -7.2 °C 34256.2 hPa Calm   2.6 km/h 81 % 0 mm
21:14 -3.8 °C -7.9 °C 34256.2 hPa ESE 9 km/h 9 km/h 64 % 0 mm
21:19 -3.9 °C -7.8 °C 34256.2 hPa East 6 km/h 6 km/h 65 % 0 mm
21:20 -5.3 °C -7.1 °C 34256.2 hPa ENE 2.6 km/h 5.1 km/h 82 % 0 mm
21:24 -4 °C -7.6 °C 34256.2 hPa ENE 9 km/h 9 km/h 67 % 0 mm
21:29 -4.1 °C -7.6 °C 34256.2 hPa ENE 11.9 km/h 11.9 km/h 68 % 0 mm
21:30 -5.4 °C -7.2 °C 34256.2 hPa Calm   5.1 km/h 82 % 0 mm
21:34 -4.2 °C -7.7 °C 34256.2 hPa ENE 11.9 km/h 11.9 km/h 68 % 0 mm
21:39 -4.3 °C -7.7 °C 34256.2 hPa East 11.9 km/h 11.9 km/h 69 % 0 mm
21:40 -5.5 °C -7.3 °C 34256.2 hPa Calm   5.1 km/h 82 % 0 mm
21:44 -4.3 °C -7.6 °C 34256.2 hPa East 11.9 km/h 11.9 km/h 70 % 0 mm
21:49 -4.4 °C -7.4 °C 34256.2 hPa ENE 15 km/h 15 km/h 72 % 0 mm
21:50 -5.7 °C -7.4 °C 34256.2 hPa SW 5.1 km/h 7.7 km/h 82 % 0 mm
21:54 -4.4 °C -7.4 °C 34256.2 hPa ENE 20.9 km/h 20.9 km/h 72 % 0 mm
21:56 -4.4 °C -7.6 °C 34256.2 hPa ESE 17.9 km/h 17.9 km/h 71 % 0 mm
22:00 -5.7 °C -7.4 °C 34256.2 hPa WSW 5.1 km/h 5.1 km/h 82 % 0 mm
22:01 -4.5 °C -7.2 °C 34256.2 hPa ENE 15 km/h 15 km/h 74 % 0 mm
22:06 -4.6 °C -7.3 °C 34256.2 hPa ESE 9 km/h 9 km/h 74 % 0 mm
22:10 -5.7 °C -7.3 °C 34293.4 hPa WSW 2.6 km/h 5.1 km/h 83 % 0 mm
22:11 -4.6 °C -7.3 °C 34256.2 hPa East 6.3 km/h 6.3 km/h 74 % 0 mm
22:16 -4.6 °C -7.4 °C 34256.2 hPa Calm     73 % 0 mm
22:20 -5.7 °C -7.3 °C 34293.4 hPa WSW 2.6 km/h 5.1 km/h 83 % 0 mm
22:21 -4.6 °C -7.3 °C 34256.2 hPa South 6 km/h   74 % 0 mm
22:26 -4.6 °C -7.4 °C 34256.2 hPa WSW 3.1 km/h 3.7 km/h 73 % 0 mm
22:30 -5.7 °C -7.3 °C 34293.4 hPa WSW 5.1 km/h 7.7 km/h 83 % 0 mm
22:31 -4.6 °C -7.4 °C 34293.4 hPa SW 6 km/h 6 km/h 73 % 0 mm
22:36 -4.6 °C -7.4 °C 34293.4 hPa WSW 6 km/h 6 km/h 73 % 0 mm
22:40 -5.6 °C -7.2 °C 34256.2 hPa Calm   5.1 km/h 84 % 0 mm
22:41 -4.6 °C -7.3 °C 34293.4 hPa Calm     74 % 0 mm
22:46 -4.6 °C -7.3 °C 34293.4 hPa NNE 3.1 km/h   74 % 0 mm
22:50 -5.7 °C -7.1 °C 34256.2 hPa ESE 5.1 km/h 5.1 km/h 85 % 0 mm
22:51 -4.6 °C -7.3 °C 34293.4 hPa West 3.1 km/h   74 % 0 mm
22:56 -4.6 °C -7.3 °C 34293.4 hPa West 6 km/h 6 km/h 74 % 0 mm
23:00 -5.8 °C -7.4 °C 34256.2 hPa South 5.1 km/h 7.7 km/h 84 % 0 mm
23:01 -4.6 °C -7.3 °C 34327.3 hPa Calm     74 % 0 mm
23:06 -4.6 °C -7.3 °C 34327.3 hPa NNW 6 km/h 6 km/h 74 % 0 mm
23:10 -5.9 °C -7.4 °C 34222.3 hPa SW 5.1 km/h 5.1 km/h 85 % 0 mm
23:11 -4.6 °C -7.3 °C 34327.3 hPa WNW 3.1 km/h   74 % 0 mm
23:16 -4.6 °C -7.3 °C 34293.4 hPa East 3.1 km/h 3.1 km/h 74 % 0 mm
23:20 -6 °C -7.4 °C 34222.3 hPa SW 2.6 km/h 5.1 km/h 85 % 0 mm
23:21 -4.6 °C -7.3 °C 34293.4 hPa ENE 4.2 km/h   74 % 0 mm
23:26 -4.6 °C -7.3 °C 34293.4 hPa East 15 km/h 15 km/h 74 % 0 mm
23:30 -6 °C -7.4 °C 34256.2 hPa SW 2.6 km/h 5.1 km/h 85 % 0 mm
23:31 -4.7 °C -7.4 °C 34293.4 hPa WSW 6 km/h 6 km/h 74 % 0 mm
23:36 -4.7 °C -7.4 °C 34293.4 hPa ENE 3.1 km/h   74 % 0 mm
23:40 -6 °C -7.3 °C 34222.3 hPa Calm   5.1 km/h 86 % 0 mm
23:41 -4.7 °C -7.3 °C 34293.4 hPa NE 6.3 km/h 6.3 km/h 75 % 0 mm
23:46 -4.7 °C -7.3 °C 34293.4 hPa NE 3.1 km/h 3.1 km/h 75 % 0 mm
23:50 -5.9 °C -7.4 °C 34222.3 hPa West 5.1 km/h 7.7 km/h 85 % 0 mm
23:51 -4.8 °C -7.3 °C 34293.4 hPa ENE 6 km/h 6 km/h 76 % 0 mm
23:56 -4.8 °C -7.3 °C 34293.4 hPa NE 3.1 km/h   76 % 0 mm
Meteo Sesrovires
Elogis d' Weather Underground - 1.5 mb

Guio original per  Jim McMurry - jmcmurry@mwt.net Adaptat per a la plantilla per  Wim van der Kuil - Leuven-Template.eu

Trobareu la nostra informacio del temps tambe a:

Weather Underground

AWEKAS